Time;durP1;ratioP1;P1;durP2;ratioP2;P2;SDS_P1;SDS_P2;PMS_P1;PMS_P2;Temp;Humidity;BMP_temperature;BMP_pressure;BME280_temperature;BME280_humidity;BME280_pressure;Samples;Min_cycle;Max_cycle;Signal;HPM_P1;HPM_P2
2023/01/09 00:02:18;;;;;;;;;;;9.40;99.90;;;;;;5100497;28;20302;-56
2023/01/09 00:04:44;;;;;;;;;;;9.40;99.90;;;;;;5100529;28;19984;-56
2023/01/09 00:07:09;;;;;;;;;;;9.40;99.90;;;;;;5100680;28;19908;-57
2023/01/09 00:09:35;;;;;;;;;;;9.40;99.90;;;;;;5100037;28;20003;-57
2023/01/09 00:12:01;;;;;;;;;;;9.40;99.90;;;;;;5100695;28;19914;-58
2023/01/09 00:14:27;;;;;;;;;;;9.30;99.90;;;;;;5100190;28;19908;-56
2023/01/09 00:16:54;;;;;;;;;;;9.30;99.90;;;;;;5100062;28;19946;-57
2023/01/09 00:19:19;;;;;;;;;;;9.30;99.90;;;;;;5100209;28;20360;-57
2023/01/09 00:21:45;;;;;;;;;;;9.20;99.90;;;;;;5099956;28;19950;-57
2023/01/09 00:24:11;;;;;;;;;;;9.20;99.90;;;;;;5100203;28;19908;-57
2023/01/09 00:26:36;;;;;;;;;;;9.20;99.90;;;;;;5099363;28;19936;-57
2023/01/09 00:29:02;;;;;;;;;;;9.10;99.90;;;;;;5099883;28;19912;-57
2023/01/09 00:31:28;;;;;;;;;;;9.10;99.90;;;;;;5099811;28;19904;-56
2023/01/09 00:33:55;;;;;;;;;;;9.00;99.90;;;;;;5099961;28;19909;-58
2023/01/09 00:36:20;;;;;;;;;;;9.00;99.90;;;;;;5099934;28;20301;-57
2023/01/09 00:38:46;;;;;;;;;;;8.90;99.90;;;;;;5099661;28;19912;-58
2023/01/09 00:41:14;;;;;;;;;;;8.90;99.90;;;;;;5099935;28;20321;-55
2023/01/09 00:43:43;;;;;;;;;;;8.80;99.90;;;;;;5099939;28;20256;-57
2023/01/09 00:46:09;;;;;;;;;;;8.70;99.90;;;;;;5099516;28;19926;-57
2023/01/09 00:48:37;;;;;;;;;;;8.80;99.90;;;;;;5099466;28;19982;-57
2023/01/09 00:51:03;;;;;;;;;;;8.70;99.90;;;;;;5099393;28;19915;-57
2023/01/09 00:53:30;;;;;;;;;;;8.70;99.90;;;;;;5099389;28;19999;-57
2023/01/09 00:56:01;;;;;;;;;;;8.70;99.90;;;;;;5099653;28;19908;-58
2023/01/09 00:58:27;;;;;;;;;;;8.70;99.90;;;;;;5099257;28;19912;-57
2023/01/09 01:00:52;;;;;;;;;;;8.70;99.90;;;;;;5099423;28;19920;-57
2023/01/09 01:03:18;;;;;;;;;;;8.80;99.90;;;;;;5099196;28;19909;-57
2023/01/09 01:08:27;;;;;;;;;;;8.80;99.90;;;;;;5098959;28;19961;-58
2023/01/09 01:10:53;;;;;;;;;;;8.90;99.90;;;;;;5098866;28;19908;-57
2023/01/09 01:13:19;;;;;;;;;;;8.90;99.90;;;;;;5099385;28;20595;-57
2023/01/09 01:15:44;;;;;;;;;;;9.00;99.90;;;;;;5099277;28;19908;-57
2023/01/09 01:18:11;;;;;;;;;;;9.00;99.90;;;;;;5098894;28;19908;-58
2023/01/09 01:20:39;;;;;;;;;;;8.70;99.90;;;;;;5098958;28;19912;-57
2023/01/09 01:23:04;;;;;;;;;;;8.40;99.90;;;;;;5099267;28;19915;-57
2023/01/09 01:25:30;;;;;;;;;;;8.20;99.90;;;;;;5098952;28;19908;-57
2023/01/09 01:27:55;;;;;;;;;;;8.00;99.90;;;;;;5098904;28;19916;-57
2023/01/09 01:30:21;;;;;;;;;;;7.90;99.90;;;;;;5098911;28;19930;-56
2023/01/09 01:32:47;;;;;;;;;;;7.90;99.90;;;;;;5098716;28;19915;-57
2023/01/09 01:35:12;;;;;;;;;;;7.80;99.90;;;;;;5098600;28;20006;-56
2023/01/09 01:37:38;;;;;;;;;;;7.80;99.90;;;;;;5098186;28;19915;-57
2023/01/09 01:40:04;;;;;;;;;;;;;;;;;;5098762;28;19908;-57
2023/01/09 01:42:30;;;;;;;;;;;7.80;99.90;;;;;;5098632;28;19908;-57
2023/01/09 01:45:00;;;;;;;;;;;7.40;99.90;;;;;;5098480;28;19959;-57
2023/01/09 01:47:28;;;;;;;;;;;7.50;99.90;;;;;;5098411;28;19947;-57
2023/01/09 01:49:54;;;;;;;;;;;7.50;99.90;;;;;;5098269;28;19934;-56
2023/01/09 01:52:20;;;;;;;;;;;7.50;99.90;;;;;;5098523;28;19951;-57
2023/01/09 01:54:46;;;;;;;;;;;7.50;99.90;;;;;;5098540;28;19915;-57
2023/01/09 01:57:12;;;;;;;;;;;7.50;99.90;;;;;;5098418;28;19915;-57
2023/01/09 01:59:41;;;;;;;;;;;7.50;99.90;;;;;;5098425;28;19930;-57
2023/01/09 02:02:08;;;;;;;;;;;7.50;99.90;;;;;;5097921;28;19920;-55
2023/01/09 02:04:35;;;;;;;;;;;7.50;99.90;;;;;;5098514;28;20369;-55
2023/01/09 02:07:03;;;;;;;;;;;7.70;99.90;;;;;;5098091;28;19916;-56
2023/01/09 02:09:29;;;;;;;;;;;7.80;99.90;;;;;;5098348;28;19908;-57
2023/01/09 02:11:56;;;;;;;;;;;7.70;99.90;;;;;;5098313;28;20364;-57
2023/01/09 02:14:23;;;;;;;;;;;7.80;99.90;;;;;;5098032;28;19908;-56
2023/01/09 02:16:48;;;;;;;;;;;7.90;99.90;;;;;;5098205;28;19915;-57
2023/01/09 02:19:34;;;;;;;;;;;8.00;99.90;;;;;;5098353;28;19909;-57
2023/01/09 02:22:18;;;;;;;;;;;8.10;99.90;;;;;;5097938;28;19912;-57
2023/01/09 02:24:46;;;;;;;;;;;8.10;99.90;;;;;;5098208;28;19911;-57
2023/01/09 02:27:12;;;;;;;;;;;8.10;99.90;;;;;;5098314;28;19916;-57
2023/01/09 02:29:41;;;;;;;;;;;8.10;99.90;;;;;;5098004;28;19912;-57
2023/01/09 02:32:16;;;;;;;;;;;8.10;99.90;;;;;;5098182;28;20318;-57
2023/01/09 02:34:44;;;;;;;;;;;8.00;99.90;;;;;;5098176;28;19999;-56
2023/01/09 02:37:13;;;;;;;;;;;7.90;99.90;;;;;;5097859;28;19908;-57
2023/01/09 02:39:42;;;;;;;;;;;7.80;99.90;;;;;;5098122;28;20357;-57
2023/01/09 02:42:12;;;;;;;;;;;7.80;99.90;;;;;;5097747;28;19920;-57
2023/01/09 02:44:41;;;;;;;;;;;7.80;99.90;;;;;;5098030;28;19915;-57
2023/01/09 02:47:07;;;;;;;;;;;7.80;99.90;;;;;;5098007;28;19912;-57
2023/01/09 02:49:35;;;;;;;;;;;7.80;99.90;;;;;;5099336;28;19919;-57
2023/01/09 02:52:12;;;;;;;;;;;7.80;99.90;;;;;;5101863;28;19908;-55
2023/01/09 02:54:47;;;;;;;;;;;7.80;99.90;;;;;;5102079;28;19908;-57
2023/01/09 02:57:12;;;;;;;;;;;7.80;99.90;;;;;;5101791;28;19919;-57
2023/01/09 02:59:38;;;;;;;;;;;;;;;;;;5101519;28;19916;-57
2023/01/09 03:02:14;;;;;;;;;;;7.60;99.90;;;;;;5101830;28;19916;-57
2023/01/09 03:04:49;;;;;;;;;;;7.60;99.90;;;;;;5101623;28;19908;-57
2023/01/09 03:07:15;;;;;;;;;;;7.50;99.90;;;;;;5101517;28;19908;-57
2023/01/09 03:09:41;;;;;;;;;;;7.50;99.90;;;;;;5101717;28;19914;-57
2023/01/09 03:12:15;;;;;;;;;;;7.50;99.90;;;;;;5101696;28;19912;-57
2023/01/09 03:14:43;;;;;;;;;;;7.40;99.90;;;;;;5101268;28;20288;-57
2023/01/09 03:17:11;;;;;;;;;;;7.40;99.90;;;;;;5101617;28;19908;-55
2023/01/09 03:19:37;;;;;;;;;;;7.40;99.90;;;;;;5101377;28;19946;-56
2023/01/09 03:22:03;;;;;;;;;;;7.40;99.90;;;;;;5101228;28;19912;-56
2023/01/09 03:24:28;;;;;;;;;;;7.30;99.90;;;;;;5101397;28;19908;-56
2023/01/09 03:26:54;;;;;;;;;;;7.30;99.90;;;;;;5101368;28;19968;-56
2023/01/09 03:29:20;;;;;;;;;;;7.40;99.90;;;;;;5101397;28;19915;-56
2023/01/09 03:31:46;;;;;;;;;;;7.40;99.90;;;;;;5100965;28;19912;-55
2023/01/09 03:34:11;;;;;;;;;;;7.40;99.90;;;;;;5101407;28;20007;-57
2023/01/09 03:36:37;;;;;;;;;;;7.40;99.90;;;;;;5101026;28;19998;-56
2023/01/09 03:39:03;;;;;;;;;;;7.40;99.90;;;;;;5101189;28;19919;-57
2023/01/09 03:41:29;;;;;;;;;;;7.50;99.90;;;;;;5101188;28;19930;-57
2023/01/09 03:43:54;;;;;;;;;;;7.50;99.90;;;;;;5100887;28;19953;-54
2023/01/09 03:46:20;;;;;;;;;;;7.60;99.90;;;;;;5100862;28;19912;-57
2023/01/09 03:48:45;;;;;;;;;;;7.60;99.90;;;;;;5101031;28;20329;-57
2023/01/09 03:51:11;;;;;;;;;;;7.70;99.90;;;;;;5100891;28;19977;-57
2023/01/09 03:53:37;;;;;;;;;;;7.60;99.90;;;;;;5100875;28;20369;-56
2023/01/09 03:56:02;;;;;;;;;;;7.60;99.90;;;;;;5100679;28;20380;-55
2023/01/09 03:58:28;;;;;;;;;;;7.60;99.90;;;;;;5100734;28;19960;-57
2023/01/09 04:00:57;;;;;;;;;;;7.60;99.90;;;;;;5099722;28;19947;-56
2023/01/09 04:03:23;;;;;;;;;;;7.70;99.90;;;;;;5100477;28;19931;-57
2023/01/09 04:05:49;;;;;;;;;;;7.60;99.90;;;;;;5100940;28;19908;-57
2023/01/09 04:08:15;;;;;;;;;;;7.70;99.90;;;;;;5100370;28;19908;-57
2023/01/09 04:10:44;;;;;;;;;;;7.60;99.90;;;;;;5100558;28;20019;-57
2023/01/09 04:13:10;;;;;;;;;;;7.60;99.90;;;;;;5100299;28;19930;-56
2023/01/09 04:15:36;;;;;;;;;;;7.60;99.90;;;;;;5100526;28;20347;-57
2023/01/09 04:18:03;;;;;;;;;;;7.40;99.90;;;;;;5100241;28;19909;-57
2023/01/09 04:20:29;;;;;;;;;;;7.30;99.90;;;;;;5100237;28;19950;-56
2023/01/09 04:22:55;;;;;;;;;;;7.20;99.90;;;;;;5100081;28;19908;-57
2023/01/09 04:25:21;;;;;;;;;;;7.20;99.90;;;;;;5099885;28;19908;-56
2023/01/09 04:27:47;;;;;;;;;;;7.10;99.90;;;;;;5100250;28;19908;-57
2023/01/09 04:30:13;;;;;;;;;;;7.10;99.90;;;;;;5100399;28;20386;-56
2023/01/09 04:32:38;;;;;;;;;;;7.00;99.90;;;;;;5099910;28;19908;-57
2023/01/09 04:35:04;;;;;;;;;;;6.90;99.90;;;;;;5099889;28;19908;-57
2023/01/09 04:37:30;;;;;;;;;;;6.90;99.90;;;;;;5099113;28;19995;-57
2023/01/09 04:39:56;;;;;;;;;;;6.90;99.90;;;;;;5100019;28;19995;-57
2023/01/09 04:42:22;;;;;;;;;;;6.90;99.90;;;;;;5100222;28;19908;-57
2023/01/09 04:44:47;;;;;;;;;;;6.90;99.90;;;;;;5099885;28;19916;-56
2023/01/09 04:47:13;;;;;;;;;;;6.80;99.90;;;;;;5100017;28;19916;-57
2023/01/09 04:49:39;;;;;;;;;;;6.80;99.90;;;;;;5100038;28;19961;-57
2023/01/09 04:52:04;;;;;;;;;;;6.80;99.90;;;;;;5099513;28;19912;-56
2023/01/09 04:54:30;;;;;;;;;;;6.90;99.90;;;;;;5099735;28;19908;-54
2023/01/09 04:56:56;;;;;;;;;;;6.90;99.90;;;;;;5099538;28;20405;-56
2023/01/09 04:59:21;;;;;;;;;;;7.00;99.90;;;;;;5099343;28;19916;-57
2023/01/09 05:01:47;;;;;;;;;;;7.10;99.90;;;;;;5099383;28;19948;-56
2023/01/09 05:04:13;;;;;;;;;;;7.10;99.90;;;;;;5099191;28;19912;-57
2023/01/09 05:06:39;;;;;;;;;;;7.20;99.90;;;;;;5099626;28;19915;-56
2023/01/09 05:09:04;;;;;;;;;;;7.30;99.90;;;;;;5099144;28;19908;-57
2023/01/09 05:11:30;;;;;;;;;;;7.50;99.90;;;;;;5099297;28;19974;-57
2023/01/09 05:13:56;;;;;;;;;;;7.60;99.90;;;;;;5098999;28;19949;-57
2023/01/09 05:16:21;;;;;;;;;;;7.50;99.90;;;;;;5099173;28;19909;-56
2023/01/09 05:18:47;;;;;;;;;;;7.50;99.90;;;;;;5099302;28;19915;-57
2023/01/09 05:21:13;;;;;;;;;;;7.40;99.90;;;;;;5099108;28;19945;-57
2023/01/09 05:23:38;;;;;;;;;;;7.40;99.90;;;;;;5098973;28;19912;-57
2023/01/09 05:26:04;;;;;;;;;;;7.30;99.90;;;;;;5099159;28;19908;-57
2023/01/09 05:28:30;;;;;;;;;;;7.30;99.90;;;;;;5098859;28;19908;-57
2023/01/09 05:30:56;;;;;;;;;;;7.20;99.90;;;;;;5099019;28;19912;-55
2023/01/09 05:33:22;;;;;;;;;;;7.20;99.90;;;;;;5098974;28;19909;-56
2023/01/09 05:35:47;;;;;;;;;;;7.10;99.90;;;;;;5099191;28;19968;-56
2023/01/09 05:38:13;;;;;;;;;;;7.00;99.90;;;;;;5098690;28;19919;-57
2023/01/09 05:40:39;;;;;;;;;;;7.00;99.90;;;;;;5098836;28;19915;-55
2023/01/09 05:43:04;;;;;;;;;;;6.90;99.90;;;;;;5098593;28;19916;-57
2023/01/09 05:45:30;;;;;;;;;;;6.90;99.90;;;;;;5098396;28;19908;-57
2023/01/09 05:47:56;;;;;;;;;;;7.00;99.90;;;;;;5098541;28;19931;-57
2023/01/09 05:50:21;;;;;;;;;;;7.10;99.90;;;;;;5098872;28;19931;-57
2023/01/09 05:52:47;;;;;;;;;;;7.10;99.90;;;;;;5098456;28;19909;-57
2023/01/09 05:55:13;;;;;;;;;;;7.10;99.90;;;;;;5098433;28;20062;-57
2023/01/09 05:57:38;;;;;;;;;;;7.10;99.90;;;;;;5098158;28;19915;-57
2023/01/09 06:00:04;;;;;;;;;;;7.30;99.90;;;;;;5098030;28;19985;-57
2023/01/09 06:02:30;;;;;;;;;;;7.00;99.90;;;;;;5098092;28;20368;-55
2023/01/09 06:04:55;;;;;;;;;;;7.00;99.90;;;;;;5098302;28;19908;-56
2023/01/09 06:07:21;;;;;;;;;;;6.90;99.90;;;;;;5098652;28;19975;-57
2023/01/09 06:09:47;;;;;;;;;;;6.90;99.90;;;;;;5098495;28;19995;-57
2023/01/09 06:12:12;;;;;;;;;;;6.80;99.90;;;;;;5098114;28;19920;-57
2023/01/09 06:14:38;;;;;;;;;;;6.80;99.90;;;;;;5098347;28;19915;-57
2023/01/09 06:17:03;;;;;;;;;;;6.80;99.90;;;;;;5098166;28;19908;-57
2023/01/09 06:19:29;;;;;;;;;;;6.90;99.90;;;;;;5098488;28;19915;-57
2023/01/09 06:21:55;;;;;;;;;;;6.90;99.90;;;;;;5098337;28;19909;-57
2023/01/09 06:24:20;;;;;;;;;;;6.90;99.90;;;;;;5097563;28;19908;-57
2023/01/09 06:26:46;;;;;;;;;;;6.90;99.90;;;;;;5098054;28;20293;-56
2023/01/09 06:29:11;;;;;;;;;;;6.80;99.90;;;;;;5098498;28;20308;-56
2023/01/09 06:31:37;;;;;;;;;;;6.80;99.90;;;;;;5097928;28;19918;-55
2023/01/09 06:34:03;;;;;;;;;;;6.70;99.90;;;;;;5098198;28;19912;-57
2023/01/09 06:36:28;;;;;;;;;;;6.70;99.90;;;;;;5098217;28;19916;-56
2023/01/09 06:38:54;;;;;;;;;;;6.70;99.90;;;;;;5096640;28;19908;-55
2023/01/09 06:41:20;;;;;;;;;;;6.70;99.90;;;;;;5097704;28;19909;-54
2023/01/09 06:43:45;;;;;;;;;;;6.70;99.90;;;;;;5098284;28;19966;-57
2023/01/09 06:46:11;;;;;;;;;;;6.70;99.90;;;;;;5098141;28;19947;-55
2023/01/09 06:48:36;;;;;;;;;;;6.70;99.90;;;;;;5097850;28;20359;-55
2023/01/09 06:51:02;;;;;;;;;;;6.70;99.90;;;;;;5097557;28;19947;-57
2023/01/09 06:53:28;;;;;;;;;;;6.70;99.90;;;;;;5097841;28;20635;-57
2023/01/09 06:55:54;;;;;;;;;;;6.70;99.90;;;;;;5098037;28;19908;-56
2023/01/09 06:58:19;;;;;;;;;;;6.70;99.90;;;;;;5097567;28;19960;-55
2023/01/09 07:00:45;;;;;;;;;;;6.70;99.90;;;;;;5097965;28;20006;-56
2023/01/09 07:03:10;;;;;;;;;;;6.70;99.90;;;;;;5097665;28;19941;-56
2023/01/09 07:05:40;;;;;;;;;;;6.80;99.90;;;;;;5097495;28;20450;-56
2023/01/09 07:08:06;;;;;;;;;;;6.70;99.90;;;;;;5097535;28;19955;-55
2023/01/09 07:10:32;;;;;;;;;;;6.80;99.90;;;;;;5097048;28;19915;-57
2023/01/09 07:12:58;;;;;;;;;;;6.80;99.90;;;;;;5097697;28;19908;-57
2023/01/09 07:15:23;;;;;;;;;;;6.90;99.90;;;;;;5097586;28;20316;-57
2023/01/09 07:17:52;;;;;;;;;;;6.90;99.90;;;;;;5097635;28;19909;-57
2023/01/09 07:20:18;;;;;;;;;;;7.00;99.90;;;;;;5097573;28;19908;-57
2023/01/09 07:22:44;;;;;;;;;;;7.60;99.90;;;;;;5097704;28;19908;-58
2023/01/09 07:25:10;;;;;;;;;;;7.40;99.90;;;;;;5097400;28;20306;-58
2023/01/09 07:27:35;;;;;;;;;;;7.30;99.90;;;;;;5097657;28;20021;-58
2023/01/09 07:30:01;;;;;;;;;;;7.50;99.90;;;;;;5097636;28;19972;-58
2023/01/09 07:32:27;;;;;;;;;;;7.60;99.90;;;;;;5097641;28;19913;-58
2023/01/09 07:34:53;;;;;;;;;;;7.60;99.90;;;;;;5097298;28;19954;-58
2023/01/09 07:37:18;;;;;;;;;;;7.70;99.90;;;;;;5099711;28;20339;-58
2023/01/09 07:39:44;;;;;;;;;;;7.70;99.90;;;;;;5101334;28;19908;-58
2023/01/09 07:42:10;;;;;;;;;;;7.50;99.90;;;;;;5101054;28;19948;-58
2023/01/09 07:44:35;;;;;;;;;;;7.50;99.90;;;;;;5101006;28;20451;-56
2023/01/09 07:47:01;;;;;;;;;;;7.40;99.90;;;;;;5100676;28;19908;-58
2023/01/09 07:49:27;;;;;;;;;;;7.30;99.90;;;;;;5101065;28;20387;-57
2023/01/09 07:51:52;;;;;;;;;;;7.20;99.90;;;;;;5100907;28;19912;-58
2023/01/09 07:54:18;;;;;;;;;;;7.10;99.90;;;;;;5100987;28;20042;-57
2023/01/09 07:56:44;;;;;;;;;;;7.10;99.90;;;;;;5100363;28;20318;-58
2023/01/09 07:59:09;;;;;;;;;;;7.00;99.90;;;;;;5100384;28;19916;-58
2023/01/09 08:01:35;;;;;;;;;;;7.10;99.90;;;;;;5100656;28;20386;-58
2023/01/09 08:04:01;;;;;;;;;;;7.00;99.90;;;;;;5100887;28;19908;-58
2023/01/09 08:06:26;;;;;;;;;;;6.90;99.90;;;;;;5100270;28;19909;-58
2023/01/09 08:08:52;;;;;;;;;;;6.90;99.90;;;;;;5099802;28;19908;-58
2023/01/09 08:11:17;;;;;;;;;;;6.90;99.90;;;;;;5100069;28;19916;-58
2023/01/09 08:13:43;;;;;;;;;;;6.90;99.90;;;;;;5100548;28;20356;-58
2023/01/09 08:16:09;;;;;;;;;;;6.80;99.90;;;;;;5099760;28;19909;-58
2023/01/09 08:18:34;;;;;;;;;;;6.90;99.90;;;;;;5100319;28;20386;-58
2023/01/09 08:21:00;;;;;;;;;;;6.80;99.90;;;;;;5100141;28;19908;-58
2023/01/09 08:23:25;;;;;;;;;;;6.90;99.90;;;;;;5099938;28;19994;-58
2023/01/09 08:25:51;;;;;;;;;;;7.00;99.90;;;;;;5099705;28;20003;-58
2023/01/09 08:28:17;;;;;;;;;;;7.00;99.90;;;;;;5100005;28;20007;-57
2023/01/09 08:30:43;;;;;;;;;;;7.10;99.90;;;;;;5099950;28;20538;-58
2023/01/09 08:33:08;;;;;;;;;;;7.00;99.90;;;;;;5099714;28;19915;-58
2023/01/09 08:35:34;;;;;;;;;;;7.20;99.90;;;;;;5099960;28;20004;-58
2023/01/09 08:38:00;;;;;;;;;;;7.20;99.90;;;;;;5099762;28;19909;-58
2023/01/09 08:40:25;;;;;;;;;;;7.30;99.90;;;;;;5099968;28;19915;-58
2023/01/09 08:48:19;;;;;;;;;;;7.50;99.90;;;;;;5099003;28;19958;-58
2023/01/09 08:50:45;;;;;;;;;;;7.60;99.90;;;;;;5099233;28;19916;-58
2023/01/09 08:53:11;;;;;;;;;;;7.70;99.90;;;;;;5099115;28;19952;-58
2023/01/09 08:55:36;;;;;;;;;;;7.80;99.90;;;;;;5099516;28;19958;-58
2023/01/09 08:58:02;;;;;;;;;;;8.20;99.90;;;;;;5099466;28;19915;-58
2023/01/09 09:00:28;;;;;;;;;;;8.20;99.90;;;;;;5099241;28;20636;-57
2023/01/09 09:02:57;;;;;;;;;;;8.40;99.90;;;;;;5099376;28;19909;-58
2023/01/09 09:05:23;;;;;;;;;;;8.70;99.90;;;;;;5099515;28;19908;-58
2023/01/09 09:07:50;;;;;;;;;;;8.80;99.90;;;;;;5099252;28;19908;-58
2023/01/09 09:10:19;;;;;;;;;;;9.30;99.90;;;;;;5098965;28;20283;-58
2023/01/09 09:12:47;;;;;;;;;;;9.50;99.90;;;;;;5099184;28;20026;-58
2023/01/09 09:15:15;;;;;;;;;;;9.40;99.90;;;;;;5098944;28;19947;-58
2023/01/09 09:17:41;;;;;;;;;;;9.50;99.90;;;;;;5098972;28;19908;-58
2023/01/09 09:20:08;;;;;;;;;;;9.50;99.90;;;;;;5099045;28;19908;-58
2023/01/09 09:22:33;;;;;;;;;;;9.70;99.90;;;;;;5099262;28;19912;-58
2023/01/09 09:24:59;;;;;;;;;;;10.00;99.90;;;;;;5098786;28;19950;-58
2023/01/09 09:27:25;;;;;;;;;;;10.30;99.90;;;;;;5098548;28;19915;-58
2023/01/09 09:29:51;;;;;;;;;;;10.90;99.90;;;;;;5098937;28;19908;-58
2023/01/09 09:32:16;;;;;;;;;;;11.00;99.90;;;;;;5098768;28;19979;-58
2023/01/09 09:34:42;;;;;;;;;;;11.20;99.90;;;;;;5098750;28;19915;-58
2023/01/09 09:37:08;;;;;;;;;;;11.00;99.90;;;;;;5098489;28;19915;-57
2023/01/09 09:39:34;;;;;;;;;;;10.80;99.90;;;;;;5098485;28;20332;-57
2023/01/09 09:44:57;;;;;;;;;;;9.90;99.90;;;;;;5098684;28;20393;-58
2023/01/09 09:47:22;;;;;;;;;;;9.90;99.90;;;;;;5098487;28;20401;-57
2023/01/09 09:49:48;;;;;;;;;;;10.10;99.90;;;;;;5098352;28;19908;-57
2023/01/09 09:52:28;;;;;;;;;;;10.30;99.90;;;;;;5098120;28;19912;-57
2023/01/09 09:54:55;;;;;;;;;;;10.50;99.90;;;;;;5098396;28;19912;-58
2023/01/09 09:57:24;;;;;;;;;;;10.70;99.90;;;;;;5098552;28;19908;-58
2023/01/09 09:59:51;;;;;;;;;;;10.70;99.90;;;;;;5097293;28;20004;-58
2023/01/09 10:02:39;;;;;;;;;;;10.80;99.90;;;;;;5098042;28;19915;-58
2023/01/09 10:05:10;;;;;;;;;;;10.90;99.90;;;;;;5098299;28;19915;-58
2023/01/09 10:07:40;;;;;;;;;;;11.00;99.90;;;;;;5098300;28;19947;-58
2023/01/09 10:10:13;;;;;;;;;;;11.10;99.90;;;;;;5097720;28;19915;-57
2023/01/09 10:12:47;;;;;;;;;;;11.10;99.90;;;;;;5098292;28;19916;-56
2023/01/09 10:15:18;;;;;;;;;;;11.50;99.90;;;;;;5098246;28;20019;-58
2023/01/09 10:18:06;;;;;;;;;;;11.90;99.90;;;;;;5097815;28;19912;-58
2023/01/09 10:20:47;;;;;;;;;;;12.50;99.90;;;;;;5092077;28;20375;-58
2023/01/09 10:23:21;;;;;;;;;;;13.00;99.90;;;;;;5098018;28;19908;-58
2023/01/09 10:25:55;;;;;;;;;;;13.50;99.90;;;;;;5097564;28;19913;-56
2023/01/09 10:28:33;;;;;;;;;;;13.90;99.90;;;;;;5097799;28;19915;-58
2023/01/09 10:31:22;;;;;;;;;;;12.70;99.90;;;;;;5097536;28;19920;-58
2023/01/09 10:34:01;;;;;;;;;;;11.80;99.90;;;;;;5097635;28;19958;-57
2023/01/09 10:36:33;;;;;;;;;;;11.20;99.90;;;;;;5097959;28;19973;-56
2023/01/09 10:39:03;;;;;;;;;;;10.80;99.90;;;;;;5096436;28;19988;-58
2023/01/09 10:41:40;;;;;;;;;;;11.10;99.90;;;;;;5097771;28;19957;-58
2023/01/09 10:44:13;;;;;;;;;;;12.00;99.90;;;;;;5097707;28;19908;-58
2023/01/09 10:46:46;;;;;;;;;;;12.80;99.90;;;;;;5097660;28;19930;-59
2023/01/09 10:49:15;;;;;;;;;;;13.80;99.90;;;;;;5097875;28;19908;-58
2023/01/09 10:51:48;;;;;;;;;;;14.50;99.90;;;;;;5097675;28;19912;-58
2023/01/09 10:54:17;;;;;;;;;;;15.50;99.90;;;;;;5097513;28;19915;-58
2023/01/09 10:56:44;;;;;;;;;;;16.50;99.90;;;;;;5097546;28;19908;-58
2023/01/09 10:59:10;;;;;;;;;;;17.00;99.90;;;;;;5097651;28;20311;-58
2023/01/09 11:01:38;;;;;;;;;;;17.60;99.90;;;;;;5097553;28;19915;-58
2023/01/09 11:04:27;;;;;;;;;;;17.70;99.90;;;;;;5096110;28;19919;-58
2023/01/09 11:07:04;;;;;;;;;;;16.80;99.90;;;;;;5091738;28;19915;-58
2023/01/09 11:09:48;;;;;;;;;;;16.60;99.90;;;;;;5097695;28;19908;-58
2023/01/09 11:12:22;;;;;;;;;;;16.10;99.90;;;;;;5101322;28;19920;-59
2023/01/09 11:14:48;;;;;;;;;;;15.80;99.90;;;;;;5101841;28;19930;-58
2023/01/09 11:17:17;;;;;;;;;;;15.30;99.90;;;;;;5101510;28;20363;-58
2023/01/09 11:19:59;;;;;;;;;;;15.20;99.90;;;;;;5101525;28;20286;-58
2023/01/09 11:22:24;;;;;;;;;;;15.90;99.90;;;;;;5101502;28;20251;-58
2023/01/09 11:25:00;;;;;;;;;;;16.60;99.90;;;;;;5101198;28;19908;-58
2023/01/09 11:27:26;;;;;;;;;;;17.20;99.90;;;;;;5101259;28;19930;-58
2023/01/09 11:30:10;;;;;;;;;;;18.00;99.90;;;;;;5100851;28;19908;-58
2023/01/09 11:32:36;;;;;;;;;;;18.80;99.90;;;;;;5101034;28;19912;-58
2023/01/09 11:35:05;;;;;;;;;;;18.80;99.90;;;;;;5101290;28;19908;-59
2023/01/09 11:37:31;;;;;;;;;;;19.40;99.90;;;;;;5101297;28;19908;-58
2023/01/09 11:39:58;;;;;;;;;;;19.30;99.90;;;;;;5101104;28;19940;-58
2023/01/09 11:45:22;;;;;;;;;;;19.60;99.90;;;;;;5087312;28;20275;-59
2023/01/09 11:47:48;;;;;;;;;;;20.10;99.90;;;;;;5101077;28;19909;-58
2023/01/09 11:50:18;;;;;;;;;;;20.40;99.90;;;;;;5100693;28;19954;-58
2023/01/09 11:52:44;;;;;;;;;;;20.50;99.90;;;;;;5100867;28;20287;-59
2023/01/09 11:55:12;;;;;;;;;;;20.70;98.70;;;;;;5100543;28;19934;-58
2023/01/09 11:57:37;;;;;;;;;;;20.80;99.90;;;;;;5100665;28;19908;-58
2023/01/09 12:00:22;;;;;;;;;;;21.00;99.90;;;;;;5100179;28;19928;-58
2023/01/09 12:02:51;;;;;;;;;;;20.80;98.10;;;;;;5100907;28;19908;-58
2023/01/09 12:05:19;;;;;;;;;;;20.60;99.90;;;;;;5100342;28;19908;-58
2023/01/09 12:07:57;;;;;;;;;;;20.30;94.20;;;;;;5100392;28;19908;-58
2023/01/09 12:10:30;;;;;;;;;;;20.40;90.00;;;;;;5100158;28;20494;-58
2023/01/09 12:13:14;;;;;;;;;;;19.60;94.00;;;;;;5100429;28;19967;-58
2023/01/09 12:15:46;;;;;;;;;;;18.00;88.60;;;;;;5100425;28;19930;-58
2023/01/09 12:18:11;;;;;;;;;;;16.70;98.00;;;;;;5099785;28;19908;-58
2023/01/09 12:20:40;;;;;;;;;;;15.70;96.90;;;;;;5099992;28;19908;-58
2023/01/09 12:23:19;;;;;;;;;;;15.00;99.90;;;;;;5099433;28;19915;-58
2023/01/09 12:25:45;;;;;;;;;;;15.30;99.90;;;;;;5100018;28;19912;-58
2023/01/09 12:28:25;;;;;;;;;;;15.90;99.90;;;;;;5099918;28;19908;-58
2023/01/09 12:30:57;;;;;;;;;;;16.50;99.90;;;;;;5099861;28;19919;-58
2023/01/09 12:33:25;;;;;;;;;;;17.20;99.90;;;;;;5099713;28;19961;-58
2023/01/09 12:36:07;;;;;;;;;;;17.60;99.90;;;;;;5100285;28;19915;-58
2023/01/09 12:38:33;;;;;;;;;;;18.10;99.90;;;;;;5099802;28;19909;-58
2023/01/09 12:41:20;;;;;;;;;;;18.60;99.90;;;;;;5099537;28;19908;-58
2023/01/09 12:44:15;;;;;;;;;;;18.90;99.90;;;;;;5099752;28;19908;-58
2023/01/09 12:46:54;;;;;;;;;;;18.70;94.20;;;;;;5099616;28;19916;-58
2023/01/09 12:49:25;;;;;;;;;;;18.00;93.10;;;;;;5099657;28;19908;-58
2023/01/09 12:51:54;;;;;;;;;;;17.70;97.20;;;;;;5099627;28;19960;-58
2023/01/09 12:54:20;;;;;;;;;;;17.60;91.60;;;;;;5099462;28;19908;-58
2023/01/09 12:56:52;;;;;;;;;;;17.30;97.20;;;;;;5099707;28;19915;-58
2023/01/09 12:59:17;;;;;;;;;;;17.20;96.40;;;;;;5099259;28;19916;-58
2023/01/09 13:01:48;;;;;;;;;;;17.10;99.90;;;;;;5099350;28;19938;-58
2023/01/09 13:04:20;;;;;;;;;;;17.10;96.40;;;;;;5099344;28;19951;-58
2023/01/09 13:06:49;;;;;;;;;;;16.50;95.50;;;;;;5099203;28;19914;-58
2023/01/09 13:09:24;;;;;;;;;;;15.80;97.10;;;;;;5098910;28;19909;-58
2023/01/09 13:11:57;;;;;;;;;;;15.90;99.90;;;;;;5098698;28;20299;-58
2023/01/09 13:14:23;;;;;;;;;;;16.50;99.90;;;;;;5099185;28;19908;-58
2023/01/09 13:16:50;;;;;;;;;;;17.00;99.90;;;;;;5098942;28;20274;-58
2023/01/09 13:19:15;;;;;;;;;;;17.60;99.90;;;;;;5098891;28;19992;-58
2023/01/09 13:21:41;;;;;;;;;;;17.90;99.90;;;;;;5098806;28;19910;-58
2023/01/09 13:24:16;;;;;;;;;;;18.40;99.90;;;;;;5098957;28;19955;-58
2023/01/09 13:26:47;;;;;;;;;;;18.50;99.90;;;;;;5098853;28;19999;-58
2023/01/09 13:29:15;;;;;;;;;;;18.30;97.60;;;;;;5098996;28;19912;-58
2023/01/09 13:31:43;;;;;;;;;;;18.40;98.30;;;;;;5098667;28;20348;-58
2023/01/09 13:34:12;;;;;;;;;;;18.40;95.70;;;;;;5098636;28;20279;-58
2023/01/09 13:36:44;;;;;;;;;;;18.40;95.60;;;;;;5099064;28;19908;-58
2023/01/09 13:39:18;;;;;;;;;;;18.40;97.80;;;;;;5098358;28;19995;-58
2023/01/09 13:44:34;;;;;;;;;;;18.70;94.80;;;;;;5098635;28;19961;-58
2023/01/09 13:47:01;;;;;;;;;;;18.40;95.20;;;;;;5098227;28;19908;-58
2023/01/09 13:49:39;;;;;;;;;;;18.40;98.10;;;;;;5098480;28;19915;-58
2023/01/09 13:52:24;;;;;;;;;;;18.60;97.90;;;;;;5098217;28;20788;-58
2023/01/09 13:54:50;;;;;;;;;;;18.70;92.40;;;;;;5097942;28;19915;-58
2023/01/09 13:57:15;;;;;;;;;;;18.80;95.90;;;;;;5098292;28;19908;-58
2023/01/09 13:59:41;;;;;;;;;;;18.60;94.90;;;;;;5097970;28;19939;-58
2023/01/09 14:02:28;;;;;;;;;;;18.30;92.60;;;;;;5097622;28;20138;-58
2023/01/09 14:04:54;;;;;;;;;;;17.90;90.20;;;;;;5098233;28;19991;-58
2023/01/09 14:07:24;;;;;;;;;;;17.10;91.00;;;;;;5098337;28;19958;-58
2023/01/09 14:09:55;;;;;;;;;;;16.80;91.50;;;;;;5097971;28;19908;-58
2023/01/09 14:12:22;;;;;;;;;;;16.40;91.30;;;;;;5098145;28;20014;-58
2023/01/09 14:14:48;;;;;;;;;;;15.70;95.70;;;;;;5098112;28;20316;-58
2023/01/09 14:17:15;;;;;;;;;;;15.40;94.00;;;;;;5098143;28;19908;-57
2023/01/09 14:19:41;;;;;;;;;;;15.10;94.70;;;;;;5098141;28;19908;-58
2023/01/09 14:22:07;;;;;;;;;;;14.50;94.70;;;;;;5097800;28;19964;-57
2023/01/09 14:24:40;;;;;;;;;;;14.20;96.70;;;;;;5098080;28;19972;-58
2023/01/09 14:27:24;;;;;;;;;;;14.00;97.40;;;;;;5097989;28;20000;-56
2023/01/09 14:29:50;;;;;;;;;;;13.60;97.60;;;;;;5098035;28;19908;-58
2023/01/09 14:32:21;;;;;;;;;;;13.50;99.90;;;;;;5097742;28;19912;-58
2023/01/09 14:34:52;;;;;;;;;;;13.40;99.90;;;;;;5097686;28;20364;-58
2023/01/09 14:37:18;;;;;;;;;;;13.30;99.90;;;;;;5097778;28;19932;-57
2023/01/09 14:39:44;;;;;;;;;;;13.20;99.90;;;;;;5097968;28;19916;-58
2023/01/09 14:42:14;;;;;;;;;;;13.40;99.90;;;;;;5097697;28;19909;-58
2023/01/09 14:44:52;;;;;;;;;;;13.30;99.90;;;;;;5097994;28;19915;-59
2023/01/09 14:47:30;;;;;;;;;;;13.30;99.90;;;;;;5101795;28;19961;-58
2023/01/09 14:49:58;;;;;;;;;;;13.40;99.90;;;;;;5102187;28;19954;-58